Time;durP1;ratioP1;P1;durP2;ratioP2;P2;SDS_P1;SDS_P2;PMS_P1;PMS_P2;Temp;Humidity;BMP_temperature;BMP_pressure;BME280_temperature;BME280_humidity;BME280_pressure;Samples;Min_cycle;Max_cycle;Signal;HPM_P1;HPM_P2
2022/12/19 00:00:51;;;;;;;11.10;7.45;;;;;;;-0.74;68.37;101782.29;1756711;81;21180;-78
2022/12/19 00:04:05;;;;;;;14.10;8.25;;;;;;;-0.71;68.77;101785.30;1756668;81;21203;-78
2022/12/19 00:07:11;;;;;;;12.07;8.05;;;;;;;-0.83;69.43;101793.44;1756590;81;21524;-77
2022/12/19 00:10:18;;;;;;;11.00;7.92;;;;;;;-0.87;70.07;101785.98;1756571;81;21211;-77
2022/12/19 00:13:24;;;;;;;12.55;7.83;;;;;;;-0.65;69.24;101785.91;1756078;81;21203;-77
2022/12/19 00:16:35;;;;;;;10.35;6.75;;;;;;;-0.62;69.41;101788.44;1756614;81;21850;-77
2022/12/19 00:19:40;;;;;;;8.53;6.00;;;;;;;-0.50;68.94;101788.84;1756968;81;21583;-77
2022/12/19 00:22:47;;;;;;;12.73;7.10;;;;;;;-0.52;69.13;101791.14;1756636;81;21246;-77
2022/12/19 00:25:52;;;;;;;11.73;7.92;;;;;;;-0.37;68.25;101798.11;1756676;81;21196;-76
2022/12/19 00:29:01;;;;;;;15.15;8.38;;;;;;;-0.57;68.23;101803.02;1755489;81;21804;-76
2022/12/19 00:32:09;;;;;;;17.00;8.83;;;;;;;-0.49;67.46;101811.62;1755904;81;21219;-77
2022/12/19 00:35:14;;;;;;;14.78;8.35;;;;;;;-0.65;67.33;101806.54;1756557;81;21192;-77
2022/12/19 00:38:21;;;;;;;16.00;8.03;;;;;;;-0.62;67.00;101819.34;1756001;81;21227;-77
2022/12/19 00:41:36;;;;;;;12.43;7.70;;;;;;;-0.56;66.77;101814.19;1756666;81;21175;-77
2022/12/19 00:44:42;;;;;;;12.63;8.10;;;;;;;-0.54;66.71;101810.48;1755418;81;21213;-77
2022/12/19 00:47:49;;;;;;;14.07;7.60;;;;;;;-0.84;67.48;101826.16;1755327;81;21274;-80
2022/12/19 00:50:55;;;;;;;13.38;7.90;;;;;;;-0.94;67.95;101824.81;1755207;81;21172;-80
2022/12/19 00:54:05;;;;;;;17.98;8.98;;;;;;;-0.97;68.16;101820.03;1755342;81;21177;-78
2022/12/19 00:57:13;;;;;;;;;;;;;;;-1.10;68.81;101818.33;1759312;81;21239;-79
2022/12/19 01:00:21;;;;;;;13.10;7.65;;;;;;;-1.13;68.97;101824.72;1755364;81;20232;-77
2022/12/19 01:03:26;;;;;;;15.03;7.53;;;;;;;-1.23;69.24;101820.64;1756838;81;21187;-78
2022/12/19 01:06:32;;;;;;;11.45;7.12;;;;;;;-1.23;69.09;101818.43;1756598;81;21192;-78
2022/12/19 01:09:40;;;;;;;12.47;7.72;;;;;;;-1.27;69.40;101819.49;1755830;81;21191;-78
2022/12/19 01:12:48;;;;;;;14.63;8.18;;;;;;;-1.22;69.21;101818.83;1756614;81;21266;-78
2022/12/19 01:15:55;;;;;;;11.60;7.03;;;;;;;-1.29;69.30;101823.13;1756590;81;21191;-78
2022/12/19 01:19:01;;;;;;;10.45;7.22;;;;;;;-1.32;69.25;101822.37;1756063;81;21821;-79
2022/12/19 01:22:08;;;;;;;14.15;6.53;;;;;;;-1.39;69.68;101819.55;1756655;81;21199;-78
2022/12/19 01:25:07;;;;;;;10.98;6.90;;;;;;;-1.40;69.78;101821.83;1756887;81;21196;-78
2022/12/19 01:28:02;;;;;;;9.53;6.47;;;;;;;-1.38;69.75;101818.13;1756626;81;21159;-78
2022/12/19 01:31:11;;;;;;;10.48;6.30;;;;;;;-1.23;69.72;101817.09;1756467;81;21242;-78
2022/12/19 01:34:18;;;;;;;11.50;6.65;;;;;;;-0.99;68.90;101820.07;1756780;81;21195;-78
2022/12/19 01:37:24;;;;;;;13.20;6.62;;;;;;;-1.09;69.28;101813.35;1756961;81;21247;-78
2022/12/19 01:40:30;;;;;;;11.88;6.97;;;;;;;-0.97;69.09;101821.38;1756687;81;21770;-78
2022/12/19 01:43:39;;;;;;;11.63;6.60;;;;;;;-1.05;69.73;101818.53;1756653;81;21179;-79
2022/12/19 01:46:53;;;;;;;10.53;6.53;;;;;;;-0.84;69.01;101818.09;1756861;81;21242;-79
2022/12/19 01:49:59;;;;;;;10.70;6.47;;;;;;;-0.99;69.59;101810.67;1755638;81;21243;-78
2022/12/19 01:53:05;;;;;;;14.25;7.42;;;;;;;-1.17;71.04;101818.20;1756683;81;21179;-79
2022/12/19 01:56:11;;;;;;;11.33;6.90;;;;;;;-1.32;72.21;101831.33;1759015;81;21211;-78
2022/12/19 01:59:23;;;;;;;10.70;7.17;;;;;;;-1.04;71.87;101820.73;1762002;81;21932;-79
2022/12/19 02:02:35;;;;;;;9.63;6.35;;;;;;;-1.05;72.37;101827.93;1762790;81;21156;-79
2022/12/19 02:05:41;;;;;;;10.98;7.30;;;;;;;-0.85;71.94;101836.94;1762709;81;21749;-79
2022/12/19 02:08:47;;;;;;;10.82;6.50;;;;;;;-0.43;70.89;101819.87;1761291;81;21241;-78
2022/12/19 02:11:54;;;;;;;11.57;6.50;;;;;;;-0.47;71.21;101833.05;1762593;81;21239;-78
2022/12/19 02:15:00;;;;;;;13.83;7.12;;;;;;;-0.48;71.30;101821.42;1761394;81;21231;-79
2022/12/19 02:18:22;;;;;;;12.93;7.30;;;;;;;-0.37;71.01;101830.37;1762482;81;21303;-79
2022/12/19 02:22:07;;;;;;;11.38;6.37;;;;;;;-0.49;71.87;101829.09;1762634;81;21821;-77
2022/12/19 02:25:54;;;;;;;9.58;5.97;;;;;;;-0.38;71.74;101836.19;1762615;81;21314;-78
2022/12/19 02:29:27;;;;;;;12.18;6.92;;;;;;;-0.40;72.18;101843.94;1762690;81;21555;-78
2022/12/19 02:33:00;;;;;;;18.10;8.63;;;;;;;-0.24;71.52;101845.45;1761255;81;21695;-79
2022/12/19 02:36:33;;;;;;;13.83;7.28;;;;;;;-0.37;71.78;101842.00;1762211;81;22368;-78
2022/12/19 02:40:00;;;;;;;17.67;9.98;;;;;;;-0.28;71.25;101849.65;1761688;81;21778;-78
2022/12/19 02:43:06;;;;;;;16.32;8.08;;;;;;;-0.29;70.92;101847.88;1729211;83;21266;-78
2022/12/19 02:46:13;;;;;;;15.83;8.55;;;;;;;-0.36;71.30;101855.84;1729741;83;21226;-79
2022/12/19 02:49:20;;;;;;;14.40;7.42;;;;;;;-0.46;71.53;101849.12;1729923;81;21943;-79
2022/12/19 02:52:32;;;;;;;15.32;7.80;;;;;;;-0.56;71.82;101853.17;1730431;83;21183;-78
2022/12/19 02:55:39;;;;;;;13.58;7.62;;;;;;;-0.36;71.16;101850.45;1738084;81;21183;-78
2022/12/19 02:59:23;;;;;;;14.45;7.15;;;;;;;-0.34;71.31;101854.41;1762141;81;21199;-78
2022/12/19 03:02:42;;;;;;;14.87;7.90;;;;;;;-0.19;70.71;101850.15;1728311;83;21203;-79
2022/12/19 03:06:18;;;;;;;14.33;7.58;;;;;;;-0.07;70.52;101871.13;1762512;81;21188;-79
2022/12/19 03:09:52;;;;;;;17.02;7.62;;;;;;;-0.05;70.56;101877.29;1762465;81;21187;-78
2022/12/19 03:13:19;;;;;;;11.05;6.67;;;;;;;-0.19;70.29;101881.95;1746297;81;21207;-78
2022/12/19 03:16:23;;;;;;;11.28;7.30;;;;;;;-0.13;70.68;101883.52;1761960;81;21215;-77
2022/12/19 03:19:29;;;;;;;14.07;6.53;;;;;;;-0.11;70.17;101881.61;1762302;81;21208;-77
2022/12/19 03:22:35;;;;;;;12.37;6.60;;;;;;;-0.05;69.60;101883.57;1762249;81;21781;-78
2022/12/19 03:25:42;;;;;;;11.30;6.25;;;;;;;-0.07;69.55;101884.57;1762266;81;21195;-78
2022/12/19 03:29:34;;;;;;;14.25;7.15;;;;;;;0.06;68.78;101885.77;1770086;81;21240;-78
2022/12/19 03:32:28;;;;;;;7.67;5.37;;;;;;;-0.10;69.01;101904.40;1756924;81;22085;-78
2022/12/19 03:35:35;;;;;;;8.08;5.22;;;;;;;0.18;67.48;101913.91;1736454;82;21201;-78
2022/12/19 03:38:43;;;;;;;7.85;4.92;;;;;;;-0.12;67.66;101918.88;1734811;82;21252;-78
2022/12/19 03:45:13;;;;;;;7.90;5.10;;;;;;;0.06;66.92;101938.70;1754005;81;21825;-79
2022/12/19 03:48:25;;;;;;;10.48;5.53;;;;;;;0.02;67.32;101942.47;1753852;81;21195;-78
2022/12/19 03:51:47;;;;;;;7.17;4.75;;;;;;;-0.02;67.13;101945.77;1751272;81;21271;-78
2022/12/19 03:55:06;;;;;;;7.55;5.35;;;;;;;-0.20;67.60;101960.89;1754070;81;21239;-78
2022/12/19 03:58:19;;;;;;;8.13;5.20;;;;;;;-0.30;68.04;101959.08;1752687;80;21204;-78
2022/12/19 04:01:25;;;;;;;9.03;4.80;;;;;;;-0.36;67.71;101960.70;1754172;81;21908;-78
2022/12/19 04:04:31;;;;;;;9.98;5.62;;;;;;;-0.39;67.54;101958.13;1754920;81;21192;-78
2022/12/19 04:07:36;;;;;;;8.63;5.08;;;;;;;-0.40;68.58;101955.05;1755369;81;21287;-77
2022/12/19 04:10:51;;;;;;;10.03;5.92;;;;;;;-0.42;68.86;101965.48;1754918;81;21199;-78
2022/12/19 04:14:03;;;;;;;8.48;6.03;;;;;;;-0.35;68.24;101965.13;1755438;81;21243;-78
2022/12/19 04:17:33;;;;;;;7.67;5.70;;;;;;;-0.54;68.78;101974.92;1754892;81;21234;-79
2022/12/19 04:20:38;;;;;;;10.98;6.10;;;;;;;-0.53;69.33;101992.79;1726320;81;21750;-78
2022/12/19 04:23:55;;;;;;;10.13;6.97;;;;;;;-0.61;69.61;101993.13;1755290;81;21190;-77
2022/12/19 04:27:00;;;;;;;11.88;6.05;;;;;;;-0.55;69.45;101997.37;1753935;81;21171;-78
2022/12/19 04:30:06;;;;;;;17.92;6.72;;;;;;;-0.56;69.38;102008.59;1755287;81;21766;-78
2022/12/19 04:33:12;;;;;;;12.35;6.83;;;;;;;-0.64;69.37;102016.56;1754319;81;21251;-79
2022/12/19 04:36:18;;;;;;;17.92;7.97;;;;;;;-0.50;69.19;102016.87;1755341;81;21188;-79
2022/12/19 04:39:24;;;;;;;15.10;8.33;;;;;;;-0.60;69.60;102023.57;1755305;81;21270;-78
2022/12/19 04:42:31;;;;;;;15.15;8.00;;;;;;;-0.72;70.10;102033.46;1754128;81;21223;-77
2022/12/19 04:45:30;;;;;;;16.50;7.90;;;;;;;-0.82;70.05;102027.11;1755376;81;21196;-77
2022/12/19 04:48:22;;;;;;;14.83;8.18;;;;;;;-0.97;70.10;102033.10;1754907;81;21227;-77
2022/12/19 04:51:29;;;;;;;11.07;7.97;;;;;;;-1.09;70.34;102041.62;1739673;81;21536;-77
2022/12/19 04:54:35;;;;;;;11.57;7.35;;;;;;;-1.09;70.34;102041.62;1677866;85;21948;-78
2022/12/19 04:57:41;;;;;;;16.27;8.93;;;;;;;-1.18;70.83;102046.02;1695305;84;21485;-77
2022/12/19 05:00:40;;;;;;;13.93;7.30;;;;;;;-1.19;71.10;102043.80;1677967;85;21205;-78
2022/12/19 05:03:46;;;;;;;17.42;10.10;;;;;;;-1.18;71.24;102048.70;1694077;84;21226;-78
2022/12/19 05:06:53;;;;;;;20.25;11.10;;;;;;;-1.26;71.79;102056.19;1648872;87;21277;-77
2022/12/19 05:09:59;;;;;;;17.67;10.53;;;;;;;-1.34;72.38;102052.44;1677397;85;21325;-77
2022/12/19 05:13:06;;;;;;;17.00;9.13;;;;;;;-1.36;72.60;102057.88;1661460;86;21268;-78
2022/12/19 05:16:16;;;;;;;17.75;10.25;;;;;;;-1.15;72.12;102062.89;1676417;85;21264;-77
2022/12/19 05:19:22;;;;;;;18.23;9.80;;;;;;;-1.14;71.90;102059.27;1677600;85;21249;-77
2022/12/19 05:22:29;;;;;;;19.40;9.73;;;;;;;-1.11;71.90;102068.55;1676321;85;21247;-77
2022/12/19 05:25:35;;;;;;;14.30;8.43;;;;;;;-1.32;72.47;102075.62;1695071;84;21271;-77
2022/12/19 05:28:41;;;;;;;16.90;8.48;;;;;;;-1.39;72.50;102090.20;1677665;85;21229;-78
2022/12/19 05:31:46;;;;;;;17.15;9.75;;;;;;;-1.43;72.76;102088.55;1693094;84;21274;-77
2022/12/19 05:34:51;;;;;;;18.62;10.10;;;;;;;-1.17;72.03;102092.97;1675817;85;21256;-79
2022/12/19 05:37:57;;;;;;;15.15;9.25;;;;;;;-0.96;71.32;102089.05;1665953;85;21759;-78
2022/12/19 05:41:02;;;;;;;17.30;9.88;;;;;;;-1.10;71.56;102087.76;1673988;85;21222;-78
2022/12/19 05:44:09;;;;;;;16.37;9.80;;;;;;;-1.32;72.29;102086.37;1725003;83;21766;-79
2022/12/19 05:47:14;;;;;;;23.67;10.68;;;;;;;-1.45;72.70;102094.45;1704261;83;21247;-79
2022/12/19 05:50:23;;;;;;;17.00;10.13;;;;;;;-1.59;73.51;102108.84;1708451;84;21222;-79
2022/12/19 05:53:31;;;;;;;18.12;9.88;;;;;;;-1.30;72.98;102101.94;1748870;81;21561;-77
2022/12/19 05:56:37;;;;;;;18.90;9.55;;;;;;;-1.30;73.03;102104.63;1751926;81;21212;-78
2022/12/19 05:59:43;;;;;;;19.90;9.65;;;;;;;-1.26;72.90;102123.31;1754473;81;21207;-80
2022/12/19 06:02:52;;;;;;;17.77;9.63;;;;;;;-1.19;72.90;102120.80;1753127;81;21766;-77
2022/12/19 06:05:59;;;;;;;19.40;10.85;;;;;;;-1.12;72.79;102127.71;1753684;80;21338;-77
2022/12/19 06:09:05;;;;;;;17.52;9.63;;;;;;;-1.31;73.46;102125.70;1746033;82;21212;-78
2022/12/19 06:12:11;;;;;;;15.03;9.08;;;;;;;-1.42;73.84;102130.56;1721421;81;21199;-78
2022/12/19 06:15:18;;;;;;;15.88;9.83;;;;;;;-1.06;72.86;102135.53;1736353;81;21212;-78
2022/12/19 06:18:23;;;;;;;16.87;10.10;;;;;;;-0.92;72.51;102133.66;1729520;81;21183;-78
2022/12/19 06:21:28;;;;;;;17.87;10.48;;;;;;;-0.95;72.46;102138.67;1748574;81;21670;-78
2022/12/19 06:24:35;;;;;;;22.22;9.73;;;;;;;-1.22;73.04;102150.00;1748210;81;21220;-77
2022/12/19 06:27:40;;;;;;;18.25;10.20;;;;;;;-1.21;73.24;102144.16;1726640;81;21494;-78
2022/12/19 06:30:46;;;;;;;18.57;10.45;;;;;;;-1.20;73.80;102144.56;1726660;81;21781;-78
2022/12/19 06:33:51;;;;;;;21.17;10.65;;;;;;;-1.08;73.48;102149.49;1749587;80;21346;-78
2022/12/19 06:36:57;;;;;;;23.15;9.85;;;;;;;-1.07;73.78;102152.11;1751396;81;21380;-78
2022/12/19 06:40:06;;;;;;;13.10;8.68;;;;;;;-1.12;73.00;102143.83;1747527;81;21199;-78
2022/12/19 06:43:13;;;;;;;16.13;10.00;;;;;;;-1.13;72.12;102146.98;1749336;80;21176;-79
2022/12/19 06:46:18;;;;;;;18.07;8.98;;;;;;;-1.44;72.82;102161.97;1749725;81;21249;-79
2022/12/19 06:49:23;;;;;;;13.38;8.48;;;;;;;-1.49;72.85;102155.89;1755112;81;21211;-77
2022/12/19 06:52:28;;;;;;;15.03;7.20;;;;;;;-1.43;73.26;102169.08;1748445;81;21184;-78
2022/12/19 06:55:33;;;;;;;12.23;6.85;;;;;;;-1.49;73.32;102172.46;1751028;81;21367;-77
2022/12/19 06:58:41;;;;;;;16.85;9.13;;;;;;;-1.58;73.12;102181.70;1717996;82;21201;-78
2022/12/19 07:02:16;;;;;;;14.00;7.95;;;;;;;-1.55;73.32;102173.56;1750034;81;21265;-77
2022/12/19 07:05:23;;;;;;;18.25;9.38;;;;;;;-1.65;73.85;102180.14;1748868;80;21212;-78
2022/12/19 07:08:29;;;;;;;14.98;8.88;;;;;;;-1.60;73.92;102172.37;1750505;81;21407;-79
2022/12/19 07:11:35;;;;;;;14.47;8.13;;;;;;;-1.59;74.03;102183.52;1744393;80;21826;-78
2022/12/19 07:14:41;;;;;;;14.68;8.15;;;;;;;-1.55;74.17;102192.34;1728332;81;21308;-77
2022/12/19 07:17:49;;;;;;;13.80;8.10;;;;;;;-1.48;73.05;102205.95;1723520;81;22184;-78
2022/12/19 07:25:26;;;;;;;12.75;6.97;;;;;;;-1.42;72.53;102200.83;1743705;81;21230;-79
2022/12/19 07:28:32;;;;;;;9.50;6.87;;;;;;;-1.35;72.18;102213.12;1751472;81;21477;-79
2022/12/19 07:31:38;;;;;;;9.78;6.42;;;;;;;-1.44;72.18;102219.68;1720201;82;21721;-78
2022/12/19 07:34:44;;;;;;;12.85;6.70;;;;;;;-1.63;72.44;102221.24;1728527;81;21191;-78
2022/12/19 07:37:49;;;;;;;9.58;6.55;;;;;;;-1.57;72.79;102223.70;1749240;81;21188;-77
2022/12/19 07:40:55;;;;;;;12.40;7.58;;;;;;;-1.56;72.80;102224.11;1745295;81;21223;-77
2022/12/19 07:44:01;;;;;;;10.35;6.58;;;;;;;-1.45;72.74;102231.35;1750322;81;21818;-77
2022/12/19 07:47:16;;;;;;;11.73;7.40;;;;;;;-1.50;73.06;102228.42;1752238;81;21187;-79
2022/12/19 07:50:20;;;;;;;10.38;7.30;;;;;;;-1.44;73.95;102231.76;1725567;81;21219;-78
2022/12/19 07:53:29;;;;;;;12.73;7.78;;;;;;;-1.50;74.21;102233.32;1734638;81;21262;-78
2022/12/19 07:56:36;;;;;;;10.28;6.53;;;;;;;-1.49;73.79;102253.86;1748724;81;21494;-78
2022/12/19 07:59:37;;;;;;;10.55;6.95;;;;;;;-1.42;73.96;102247.80;1755402;80;21231;-79
2022/12/19 08:02:43;;;;;;;13.38;8.73;;;;;;;-1.35;73.25;102248.89;1754631;81;21184;-78
2022/12/19 08:05:51;;;;;;;9.75;7.00;;;;;;;-1.22;72.43;102263.22;1748660;81;21127;-79
2022/12/19 08:08:57;;;;;;;12.82;7.67;;;;;;;-1.18;72.40;102253.66;1750723;81;21187;-78
2022/12/19 08:12:06;;;;;;;12.55;8.28;;;;;;;-1.27;72.64;102252.67;1754235;81;21160;-78
2022/12/19 08:15:16;;;;;;;8.90;6.35;;;;;;;-1.13;72.64;102261.55;1750925;81;21207;-80
2022/12/19 08:18:28;;;;;;;12.98;8.18;;;;;;;-1.16;72.62;102246.91;1749053;81;21214;-79
2022/12/19 08:21:34;;;;;;;15.25;7.80;;;;;;;-0.98;72.12;102262.84;1752093;81;21246;-79
2022/12/19 08:24:40;;;;;;;15.15;8.08;;;;;;;-0.85;71.79;102266.82;1726184;81;21226;-79
2022/12/19 08:27:47;;;;;;;12.23;7.58;;;;;;;-0.97;71.49;102266.81;1755463;80;21179;-80
2022/12/19 08:30:54;;;;;;;10.78;6.67;;;;;;;-1.09;71.15;102275.29;1755177;80;21246;-80
2022/12/19 08:34:03;;;;;;;11.50;7.53;;;;;;;-0.87;70.49;102270.92;1751894;81;21823;-79
2022/12/19 08:37:09;;;;;;;11.22;6.80;;;;;;;-0.96;70.86;102265.88;1752755;80;21222;-79
2022/12/19 08:40:15;;;;;;;9.80;6.95;;;;;;;-1.01;70.85;102265.63;1753772;80;21580;-79
2022/12/19 08:43:21;;;;;;;11.30;7.03;;;;;;;-0.69;69.71;102270.72;1756307;80;21219;-79
2022/12/19 08:46:26;;;;;;;12.28;8.05;;;;;;;-0.81;70.22;102267.13;1754022;80;21171;-78
2022/12/19 08:49:25;;;;;;;20.95;8.15;;;;;;;-0.62;70.27;102270.02;1725960;81;21211;-78
2022/12/19 08:52:32;;;;;;;16.12;8.10;;;;;;;-0.54;69.18;102258.05;1747612;81;21216;-78
2022/12/19 08:55:37;;;;;;;11.12;7.60;;;;;;;-0.45;69.18;102268.05;1725125;80;21433;-78
2022/12/19 08:58:43;;;;;;;13.98;7.95;;;;;;;-0.57;68.60;102272.06;1752190;80;21177;-78
2022/12/19 09:01:49;;;;;;;11.43;7.42;;;;;;;-0.34;68.97;102282.83;1748542;80;21808;-79
2022/12/19 09:04:55;;;;;;;11.60;7.53;;;;;;;-0.30;68.40;102272.36;1704415;82;21200;-78
2022/12/19 09:08:03;;;;;;;15.98;8.18;;;;;;;-0.32;68.22;102275.59;1748604;80;21198;-78
2022/12/19 09:11:18;;;;;;;14.50;8.38;;;;;;;-0.43;68.44;102282.30;1758272;80;21471;-79
2022/12/19 09:14:23;;;;;;;12.60;7.22;;;;;;;-0.41;68.31;102293.42;1757274;81;21242;-78
2022/12/19 09:17:28;;;;;;;10.58;6.58;;;;;;;-0.60;68.59;102285.64;1759503;80;21171;-79
2022/12/19 09:20:35;;;;;;;9.90;7.10;;;;;;;-0.51;68.34;102289.33;1757440;80;21187;-78
2022/12/19 09:23:41;;;;;;;14.20;8.48;;;;;;;-0.54;68.59;102274.64;1742802;81;22744;-78
2022/12/19 09:26:47;;;;;;;15.18;7.85;;;;;;;-0.61;69.17;102279.82;1745217;80;21171;-78
2022/12/19 09:29:54;;;;;;;13.35;7.50;;;;;;;-0.49;68.81;102297.33;1747190;80;21301;-77
2022/12/19 09:32:59;;;;;;;10.35;7.05;;;;;;;-0.18;68.75;102292.55;1751678;80;21281;-77
2022/12/19 09:36:04;;;;;;;12.13;7.60;;;;;;;0.13;67.40;102292.20;1755468;80;22545;-77
2022/12/19 09:39:09;;;;;;;9.05;6.67;;;;;;;0.10;67.11;102279.37;1747599;80;21245;-78
2022/12/19 09:42:40;;;;;;;10.80;6.80;;;;;;;0.07;67.34;102274.97;1755901;80;21782;-78
2022/12/19 09:46:02;;;;;;;9.88;7.15;;;;;;;-0.04;67.55;102284.81;1750866;80;21231;-78
2022/12/19 09:49:08;;;;;;;9.93;6.50;;;;;;;0.11;66.75;102282.45;1744000;80;22436;-79
2022/12/19 09:52:24;;;;;;;13.85;7.60;;;;;;;0.03;67.30;102281.88;1746440;80;21634;-78
2022/12/19 09:55:43;;;;;;;11.93;7.47;;;;;;;-0.02;66.53;102288.78;1753645;81;21191;-78
2022/12/19 09:58:56;;;;;;;11.55;7.00;;;;;;;-0.07;66.44;102275.98;1733053;81;21203;-79
2022/12/19 10:02:12;;;;;;;10.28;6.53;;;;;;;-0.19;67.25;102262.53;1751651;81;21861;-79
2022/12/19 10:05:54;;;;;;;11.90;7.58;;;;;;;-0.29;66.81;102271.42;1752240;81;21227;-79
2022/12/19 10:09:00;;;;;;;10.70;6.45;;;;;;;-0.19;65.92;102280.48;1754057;81;21211;-79
2022/12/19 10:12:30;;;;;;;11.53;7.47;;;;;;;-0.09;65.72;102276.05;1748706;81;21167;-79
2022/12/19 10:15:56;;;;;;;12.70;7.80;;;;;;;-0.22;65.41;102262.67;1749876;80;21745;-78
2022/12/19 10:19:12;;;;;;;11.33;7.70;;;;;;;-0.16;64.83;102261.55;1731948;81;21786;-79
2022/12/19 10:22:48;;;;;;;15.00;8.68;;;;;;;-0.11;65.64;102259.55;1752070;81;21191;-78
2022/12/19 10:26:07;;;;;;;13.00;8.73;;;;;;;-0.09;64.87;102273.84;1747106;81;21230;-78
2022/12/19 10:29:45;;;;;;;14.53;9.33;;;;;;;-0.06;65.31;102290.71;1736673;81;21246;-79
2022/12/19 10:33:09;;;;;;;16.17;9.33;;;;;;;-0.13;66.16;102276.23;1756883;80;21176;-79
2022/12/19 10:36:18;;;;;;;20.62;12.00;;;;;;;-0.09;65.47;102287.29;1753516;81;21235;-78
2022/12/19 10:39:36;;;;;;;19.65;10.70;;;;;;;0.05;66.34;102274.16;1750046;80;21239;-79
2022/12/19 10:43:30;;;;;;;10.90;7.22;;;;;;;0.01;67.55;102281.95;1755853;80;21180;-78
2022/12/19 10:46:55;;;;;;;13.18;8.10;;;;;;;-0.01;65.81;102286.49;1756030;81;21199;-79
2022/12/19 10:50:03;;;;;;;14.33;8.55;;;;;;;-0.05;66.24;102279.48;1748295;80;21204;-79
2022/12/19 10:53:14;;;;;;;16.82;10.23;;;;;;;-0.06;65.08;102292.05;1759194;80;21255;-79
2022/12/19 10:56:22;;;;;;;22.13;11.00;;;;;;;0.03;64.82;102287.26;1754795;81;21190;-79
2022/12/19 10:59:29;;;;;;;14.67;9.17;;;;;;;0.02;66.35;102293.58;1755666;81;21160;-78
2022/12/19 11:02:52;;;;;;;14.25;8.20;;;;;;;0.01;65.58;102294.06;1750430;81;21175;-79
2022/12/19 11:05:58;;;;;;;11.30;7.40;;;;;;;0.02;64.48;102298.97;1743950;81;21408;-79
2022/12/19 11:09:11;;;;;;;18.35;8.38;;;;;;;0.01;64.60;102288.67;1753230;80;21904;-78
2022/12/19 11:12:20;;;;;;;12.35;7.72;;;;;;;-0.02;63.86;102292.82;1751997;81;21184;-79
2022/12/19 11:15:27;;;;;;;14.03;8.53;;;;;;;-0.07;63.92;102291.66;1753580;81;22658;-79
2022/12/19 11:18:50;;;;;;;14.13;8.30;;;;;;;-0.06;64.12;102300.13;1753682;81;21207;-80
2022/12/19 11:21:56;;;;;;;12.23;7.72;;;;;;;-0.08;65.07;102295.76;1751416;81;21171;-80
2022/12/19 11:25:01;;;;;;;19.50;8.38;;;;;;;-0.14;65.06;102306.73;1752222;81;21196;-79
2022/12/19 11:28:19;;;;;;;13.58;8.38;;;;;;;-0.03;64.67;102309.44;1751485;81;21203;-79
2022/12/19 11:31:30;;;;;;;15.75;8.55;;;;;;;-0.10;63.94;102313.28;1757266;81;21357;-79
2022/12/19 11:34:39;;;;;;;15.65;8.73;;;;;;;-0.08;64.16;102317.28;1751475;81;21196;-79
2022/12/19 11:38:08;;;;;;;16.27;9.10;;;;;;;-0.11;64.13;102337.56;1754313;80;21195;-79
2022/12/19 11:41:28;;;;;;;14.87;9.15;;;;;;;-0.09;64.57;102328.52;1754348;81;21223;-78
2022/12/19 11:44:38;;;;;;;15.75;9.23;;;;;;;-0.11;64.01;102337.09;1756542;80;21747;-79
2022/12/19 11:48:19;;;;;;;16.07;9.48;;;;;;;-0.11;64.01;102337.09;1754752;81;21378;-79
2022/12/19 11:51:50;;;;;;;13.68;8.23;;;;;;;-0.07;64.05;102336.05;1747711;81;21271;-79
2022/12/19 11:55:11;;;;;;;13.58;8.43;;;;;;;-0.11;63.98;102326.80;1757009;80;21191;-79
2022/12/19 11:58:19;;;;;;;13.20;8.88;;;;;;;-0.16;63.62;102346.28;1758759;80;21987;-79
2022/12/19 12:01:57;;;;;;;14.33;8.53;;;;;;;-0.18;63.22;102347.69;1761501;80;21199;-79
2022/12/19 12:05:18;;;;;;;17.12;9.08;;;;;;;-0.17;62.06;102347.22;1757799;81;21421;-78
2022/12/19 12:08:49;;;;;;;14.80;9.08;;;;;;;-0.12;60.98;102349.27;1756459;81;21282;-78
2022/12/19 12:12:18;;;;;;;18.90;9.30;;;;;;;-0.20;62.53;102352.23;1757968;81;21251;-80
2022/12/19 12:15:59;;;;;;;16.15;8.85;;;;;;;-0.18;63.92;102352.20;1747646;81;21136;-80
2022/12/19 12:19:37;;;;;;;23.85;10.03;;;;;;;-0.16;63.11;102343.59;1759113;81;21235;-80
2022/12/19 12:23:06;;;;;;;15.03;8.45;;;;;;;-0.20;62.21;102353.58;1757475;81;21183;-79
2022/12/19 12:26:41;;;;;;;16.10;8.98;;;;;;;-0.28;62.19;102355.23;1757791;81;21191;-79
2022/12/19 12:30:19;;;;;;;18.77;10.20;;;;;;;-0.22;62.67;102354.59;1758085;81;21207;-79
2022/12/19 12:33:42;;;;;;;17.65;10.20;;;;;;;-0.29;63.32;102365.55;1754396;81;21167;-79
2022/12/19 12:37:04;;;;;;;19.35;10.18;;;;;;;-0.23;63.28;102370.33;1754134;81;21175;-79
2022/12/19 12:40:39;;;;;;;16.97;9.28;;;;;;;-0.24;63.18;102369.41;1757323;81;21212;-79
2022/12/19 12:44:05;;;;;;;16.02;9.33;;;;;;;-0.22;63.17;102372.07;1757143;81;21160;-79
2022/12/19 12:47:32;;;;;;;18.35;10.20;;;;;;;-0.13;61.54;102367.70;1758443;81;21497;-79
2022/12/19 12:50:37;;;;;;;21.97;11.12;;;;;;;-0.15;62.08;102369.08;1754839;81;21189;-78
2022/12/19 12:53:46;;;;;;;19.35;11.15;;;;;;;-0.17;62.25;102368.27;1745537;81;21247;-79
2022/12/19 12:56:52;;;;;;;21.12;11.40;;;;;;;-0.15;63.01;102368.20;1757317;81;21358;-79
2022/12/19 13:00:28;;;;;;;18.42;10.70;;;;;;;-0.19;63.96;102370.12;1729994;82;21239;-79
2022/12/19 13:03:33;;;;;;;17.23;9.90;;;;;;;-0.26;63.58;102369.48;1754011;81;21172;-79
2022/12/19 13:06:58;;;;;;;16.67;10.13;;;;;;;-0.27;63.41;102373.11;1754224;81;21188;-79
2022/12/19 13:10:32;;;;;;;19.20;9.45;;;;;;;-0.36;63.60;102376.14;1741381;81;21188;-78
2022/12/19 13:14:01;;;;;;;17.00;10.43;;;;;;;-0.28;62.66;102382.59;1723407;82;21227;-79
2022/12/19 13:17:05;;;;;;;13.90;8.53;;;;;;;-0.49;63.43;102382.89;1706129;81;21193;-78
2022/12/19 13:20:36;;;;;;;17.12;10.20;;;;;;;-0.61;63.52;102393.63;1751284;81;21255;-78
2022/12/19 13:23:53;;;;;;;20.25;10.93;;;;;;;-0.64;63.62;102391.50;1768892;80;21138;-76
2022/12/19 13:26:58;;;;;;;16.37;9.68;;;;;;;-0.66;63.65;102394.69;1782642;79;21144;-78
2022/12/19 13:30:14;;;;;;;16.82;10.13;;;;;;;-0.62;63.54;102398.56;1760353;81;21206;-76
2022/12/19 13:33:20;;;;;;;20.00;12.07;;;;;;;-0.65;63.97;102407.22;1792889;80;21569;-77
2022/12/19 13:37:00;;;;;;;20.97;11.08;;;;;;;-0.79;64.31;102402.33;1792346;80;21493;-77
2022/12/19 13:40:10;;;;;;;17.37;9.93;;;;;;;-0.83;64.83;102397.52;1777092;80;21148;-78
2022/12/19 13:43:48;;;;;;;16.37;7.67;;;;;;;-0.61;65.04;102408.84;1738042;82;21165;-78
2022/12/19 13:46:54;;;;;;;21.35;10.38;;;;;;;-0.65;65.25;102422.01;1732498;82;21442;-77
2022/12/19 13:49:59;;;;;;;17.32;10.18;;;;;;;-0.58;65.07;102435.62;1750804;82;21657;-78
2022/12/19 13:53:05;;;;;;;19.50;9.95;;;;;;;-0.60;64.89;102430.79;1750998;82;21173;-77
2022/12/19 13:56:23;;;;;;;19.73;10.63;;;;;;;-0.62;64.35;102429.47;1732324;82;21226;-77
2022/12/19 13:59:34;;;;;;;17.52;10.35;;;;;;;-0.77;65.23;102437.60;1767134;81;21171;-77
2022/12/19 14:02:43;;;;;;;19.50;10.90;;;;;;;-0.91;65.63;102430.94;1767449;81;21226;-77
2022/12/19 14:05:51;;;;;;;19.98;10.05;;;;;;;-1.07;66.36;102435.95;1766241;80;21195;-77
2022/12/19 14:09:05;;;;;;;19.07;11.68;;;;;;;-1.21;67.30;102435.52;1767370;81;21190;-78
2022/12/19 14:15:12;;;;;;;18.32;10.03;;;;;;;-1.22;67.83;102437.33;1767344;81;21191;-77
2022/12/19 14:15:41;;;;;;;15.68;10.80;;;;;;;-1.04;68.29;102426.42;1767888;81;21207;-81
2022/12/19 14:18:50;;;;;;;21.60;11.57;;;;;;;-1.17;69.64;102433.16;1767971;81;21214;-81
2022/12/19 14:21:55;;;;;;;20.77;10.15;;;;;;;-1.19;70.14;102429.16;1697955;82;21253;-81
2022/12/19 14:25:10;;;;;;;16.65;9.38;;;;;;;-1.57;71.41;102428.55;1737551;82;21202;-80
2022/12/19 14:28:23;;;;;;;19.00;10.30;;;;;;;-1.64;72.56;102436.39;1752363;82;21233;-81
2022/12/19 14:31:31;;;;;;;18.87;10.78;;;;;;;-1.61;72.96;102444.80;1740714;82;21210;-79
2022/12/19 14:34:39;;;;;;;17.12;9.60;;;;;;;-1.67;73.31;102447.20;1748592;82;21185;-80
2022/12/19 14:37:48;;;;;;;17.73;9.85;;;;;;;-1.74;73.54;102451.45;1746770;82;21188;-77
2022/12/19 14:40:56;;;;;;;22.73;8.70;;;;;;;-1.82;73.53;102448.55;1746649;82;21209;-77
2022/12/19 14:44:03;;;;;;;16.32;9.43;;;;;;;-1.90;74.02;102458.61;1762272;81;21144;-82
2022/12/19 14:47:17;;;;;;;19.82;10.15;;;;;;;-1.97;74.16;102458.85;1791435;80;21183;-77
2022/12/19 14:50:38;;;;;;;17.80;10.05;;;;;;;-2.00;73.94;102446.86;1788100;80;21191;-77